sensor_id;sensor_type;location;lat;lon;timestamp;P1;durP1;ratioP1;P2;durP2;ratioP2
64199;SDS011;50516;52.272;5.136;2023-03-01T00:00:54;17.13;;;10.40;;
64199;SDS011;50516;52.272;5.136;2023-03-01T00:03:25;14.03;;;9.60;;
64199;SDS011;50516;52.272;5.136;2023-03-01T00:05:50;16.10;;;10.60;;
64199;SDS011;50516;52.272;5.136;2023-03-01T00:08:16;12.90;;;9.97;;
64199;SDS011;50516;52.272;5.136;2023-03-01T00:10:41;18.07;;;12.30;;
64199;SDS011;50516;52.272;5.136;2023-03-01T00:13:06;15.77;;;10.77;;
64199;SDS011;50516;52.272;5.136;2023-03-01T00:15:32;16.20;;;11.50;;
64199;SDS011;50516;52.272;5.136;2023-03-01T00:17:57;19.00;;;12.40;;
64199;SDS011;50516;52.272;5.136;2023-03-01T00:20:22;17.80;;;11.27;;
64199;SDS011;50516;52.272;5.136;2023-03-01T00:22:48;17.13;;;11.33;;
64199;SDS011;50516;52.272;5.136;2023-03-01T00:25:14;15.90;;;11.20;;
64199;SDS011;50516;52.272;5.136;2023-03-01T00:27:39;15.83;;;11.97;;
64199;SDS011;50516;52.272;5.136;2023-03-01T00:30:05;16.43;;;11.13;;
64199;SDS011;50516;52.272;5.136;2023-03-01T00:32:31;15.00;;;11.00;;
64199;SDS011;50516;52.272;5.136;2023-03-01T00:34:56;17.10;;;10.70;;
64199;SDS011;50516;52.272;5.136;2023-03-01T00:37:21;15.80;;;11.37;;
64199;SDS011;50516;52.272;5.136;2023-03-01T00:39:48;19.10;;;11.83;;
64199;SDS011;50516;52.272;5.136;2023-03-01T00:42:14;16.67;;;10.83;;
64199;SDS011;50516;52.272;5.136;2023-03-01T00:44:40;17.73;;;11.93;;
64199;SDS011;50516;52.272;5.136;2023-03-01T00:47:06;21.77;;;11.50;;
64199;SDS011;50516;52.272;5.136;2023-03-01T00:49:31;19.37;;;11.40;;
64199;SDS011;50516;52.272;5.136;2023-03-01T00:51:57;20.00;;;11.30;;
64199;SDS011;50516;52.272;5.136;2023-03-01T00:54:22;16.97;;;11.57;;
64199;SDS011;50516;52.272;5.136;2023-03-01T00:56:48;17.27;;;11.00;;
64199;SDS011;50516;52.272;5.136;2023-03-01T00:59:13;18.13;;;12.53;;
64199;SDS011;50516;52.272;5.136;2023-03-01T01:01:38;16.57;;;11.10;;
64199;SDS011;50516;52.272;5.136;2023-03-01T01:04:05;16.17;;;10.40;;
64199;SDS011;50516;52.272;5.136;2023-03-01T01:06:34;15.70;;;11.67;;
64199;SDS011;50516;52.272;5.136;2023-03-01T01:09:02;17.87;;;11.80;;
64199;SDS011;50516;52.272;5.136;2023-03-01T01:11:28;18.40;;;11.53;;
64199;SDS011;50516;52.272;5.136;2023-03-01T01:13:55;16.10;;;10.67;;
64199;SDS011;50516;52.272;5.136;2023-03-01T01:16:22;18.03;;;10.87;;
64199;SDS011;50516;52.272;5.136;2023-03-01T01:18:49;16.90;;;11.00;;
64199;SDS011;50516;52.272;5.136;2023-03-01T01:21:16;14.47;;;9.80;;
64199;SDS011;50516;52.272;5.136;2023-03-01T01:23:44;13.83;;;9.93;;
64199;SDS011;50516;52.272;5.136;2023-03-01T01:26:12;14.87;;;10.10;;
64199;SDS011;50516;52.272;5.136;2023-03-01T01:28:39;15.73;;;10.40;;
64199;SDS011;50516;52.272;5.136;2023-03-01T01:31:05;16.57;;;10.50;;
64199;SDS011;50516;52.272;5.136;2023-03-01T01:33:31;23.10;;;11.70;;
64199;SDS011;50516;52.272;5.136;2023-03-01T01:35:57;15.70;;;10.83;;
64199;SDS011;50516;52.272;5.136;2023-03-01T01:38:22;15.83;;;11.00;;
64199;SDS011;50516;52.272;5.136;2023-03-01T01:40:48;16.67;;;10.97;;
64199;SDS011;50516;52.272;5.136;2023-03-01T01:43:20;14.30;;;10.37;;
64199;SDS011;50516;52.272;5.136;2023-03-01T01:45:51;19.02;;;10.68;;
64199;SDS011;50516;52.272;5.136;2023-03-01T01:48:38;13.03;;;9.47;;
64199;SDS011;50516;52.272;5.136;2023-03-01T01:51:11;13.43;;;9.67;;
64199;SDS011;50516;52.272;5.136;2023-03-01T01:53:40;14.70;;;10.27;;
64199;SDS011;50516;52.272;5.136;2023-03-01T01:56:09;15.73;;;10.70;;
64199;SDS011;50516;52.272;5.136;2023-03-01T01:58:36;13.67;;;9.93;;
64199;SDS011;50516;52.272;5.136;2023-03-01T02:01:03;14.97;;;10.80;;
64199;SDS011;50516;52.272;5.136;2023-03-01T02:03:30;15.60;;;10.53;;
64199;SDS011;50516;52.272;5.136;2023-03-01T02:06:19;14.37;;;9.70;;
64199;SDS011;50516;52.272;5.136;2023-03-01T02:08:53;15.83;;;10.53;;
64199;SDS011;50516;52.272;5.136;2023-03-01T02:11:22;17.20;;;10.77;;
64199;SDS011;50516;52.272;5.136;2023-03-01T02:13:48;17.17;;;11.27;;
64199;SDS011;50516;52.272;5.136;2023-03-01T02:16:14;13.77;;;10.17;;
64199;SDS011;50516;52.272;5.136;2023-03-01T02:18:41;16.63;;;11.40;;
64199;SDS011;50516;52.272;5.136;2023-03-01T02:23:55;15.37;;;10.27;;
64199;SDS011;50516;52.272;5.136;2023-03-01T02:26:54;14.77;;;10.10;;
64199;SDS011;50516;52.272;5.136;2023-03-01T02:29:15;17.37;;;10.83;;
64199;SDS011;50516;52.272;5.136;2023-03-01T02:31:40;18.53;;;12.87;;
64199;SDS011;50516;52.272;5.136;2023-03-01T02:34:14;21.50;;;12.20;;
64199;SDS011;50516;52.272;5.136;2023-03-01T02:39:40;14.83;;;10.83;;
64199;SDS011;50516;52.272;5.136;2023-03-01T02:42:11;19.60;;;11.70;;
64199;SDS011;50516;52.272;5.136;2023-03-01T02:44:40;20.60;;;12.10;;
64199;SDS011;50516;52.272;5.136;2023-03-01T02:47:05;20.33;;;11.53;;
64199;SDS011;50516;52.272;5.136;2023-03-01T02:49:32;16.20;;;10.87;;
64199;SDS011;50516;52.272;5.136;2023-03-01T02:54:50;17.37;;;12.03;;
64199;SDS011;50516;52.272;5.136;2023-03-01T02:57:23;18.60;;;11.83;;
64199;SDS011;50516;52.272;5.136;2023-03-01T02:59:52;14.87;;;10.53;;
64199;SDS011;50516;52.272;5.136;2023-03-01T03:02:23;15.77;;;10.93;;
64199;SDS011;50516;52.272;5.136;2023-03-01T03:05:10;17.73;;;11.87;;
64199;SDS011;50516;52.272;5.136;2023-03-01T03:07:42;18.83;;;11.43;;
64199;SDS011;50516;52.272;5.136;2023-03-01T03:10:13;20.73;;;12.80;;
64199;SDS011;50516;52.272;5.136;2023-03-01T03:12:53;17.20;;;11.53;;
64199;SDS011;50516;52.272;5.136;2023-03-01T03:15:21;16.97;;;11.87;;
64199;SDS011;50516;52.272;5.136;2023-03-01T03:17:48;16.83;;;12.13;;
64199;SDS011;50516;52.272;5.136;2023-03-01T03:20:16;20.27;;;12.70;;
64199;SDS011;50516;52.272;5.136;2023-03-01T03:22:49;16.30;;;11.17;;
64199;SDS011;50516;52.272;5.136;2023-03-01T03:25:17;18.10;;;12.10;;
64199;SDS011;50516;52.272;5.136;2023-03-01T03:27:44;19.70;;;11.80;;
64199;SDS011;50516;52.272;5.136;2023-03-01T03:30:11;20.87;;;12.67;;
64199;SDS011;50516;52.272;5.136;2023-03-01T03:32:41;19.77;;;13.70;;
64199;SDS011;50516;52.272;5.136;2023-03-01T03:35:17;16.90;;;11.33;;
64199;SDS011;50516;52.272;5.136;2023-03-01T03:37:43;17.80;;;12.33;;
64199;SDS011;50516;52.272;5.136;2023-03-01T03:40:28;17.03;;;11.47;;
64199;SDS011;50516;52.272;5.136;2023-03-01T03:42:55;15.77;;;10.80;;
64199;SDS011;50516;52.272;5.136;2023-03-01T03:45:20;16.70;;;11.70;;
64199;SDS011;50516;52.272;5.136;2023-03-01T03:47:46;19.27;;;11.73;;
64199;SDS011;50516;52.272;5.136;2023-03-01T03:50:12;17.60;;;11.93;;
64199;SDS011;50516;52.272;5.136;2023-03-01T03:52:39;18.13;;;12.13;;
64199;SDS011;50516;52.272;5.136;2023-03-01T03:55:05;15.43;;;11.67;;
64199;SDS011;50516;52.272;5.136;2023-03-01T03:57:34;19.33;;;12.20;;
64199;SDS011;50516;52.272;5.136;2023-03-01T04:00:00;17.07;;;11.67;;
64199;SDS011;50516;52.272;5.136;2023-03-01T04:02:25;16.23;;;11.80;;
64199;SDS011;50516;52.272;5.136;2023-03-01T04:04:51;17.27;;;11.90;;
64199;SDS011;50516;52.272;5.136;2023-03-01T04:07:16;19.43;;;12.97;;
64199;SDS011;50516;52.272;5.136;2023-03-01T04:09:42;17.50;;;11.80;;
64199;SDS011;50516;52.272;5.136;2023-03-01T04:12:08;19.37;;;12.83;;
64199;SDS011;50516;52.272;5.136;2023-03-01T04:14:34;16.77;;;11.50;;
64199;SDS011;50516;52.272;5.136;2023-03-01T04:17:00;18.00;;;11.87;;
64199;SDS011;50516;52.272;5.136;2023-03-01T04:19:26;16.67;;;12.40;;
64199;SDS011;50516;52.272;5.136;2023-03-01T04:21:52;19.50;;;12.53;;
64199;SDS011;50516;52.272;5.136;2023-03-01T04:24:18;17.53;;;11.43;;
64199;SDS011;50516;52.272;5.136;2023-03-01T04:26:43;17.03;;;11.70;;
64199;SDS011;50516;52.272;5.136;2023-03-01T04:29:08;18.10;;;11.80;;
64199;SDS011;50516;52.272;5.136;2023-03-01T04:31:34;16.50;;;11.40;;
64199;SDS011;50516;52.272;5.136;2023-03-01T04:33:59;21.10;;;12.50;;
64199;SDS011;50516;52.272;5.136;2023-03-01T04:36:26;15.80;;;11.63;;
64199;SDS011;50516;52.272;5.136;2023-03-01T04:38:53;19.80;;;12.50;;
64199;SDS011;50516;52.272;5.136;2023-03-01T04:41:20;18.23;;;12.23;;
64199;SDS011;50516;52.272;5.136;2023-03-01T04:43:46;18.30;;;11.50;;
64199;SDS011;50516;52.272;5.136;2023-03-01T04:46:15;18.87;;;12.00;;
64199;SDS011;50516;52.272;5.136;2023-03-01T04:48:43;18.50;;;10.77;;
64199;SDS011;50516;52.272;5.136;2023-03-01T04:51:09;17.53;;;10.60;;
64199;SDS011;50516;52.272;5.136;2023-03-01T04:53:38;19.13;;;12.60;;
64199;SDS011;50516;52.272;5.136;2023-03-01T04:56:04;19.07;;;12.43;;
64199;SDS011;50516;52.272;5.136;2023-03-01T04:58:30;17.13;;;12.53;;
64199;SDS011;50516;52.272;5.136;2023-03-01T05:00:56;17.20;;;11.57;;
64199;SDS011;50516;52.272;5.136;2023-03-01T05:03:21;17.07;;;11.10;;
64199;SDS011;50516;52.272;5.136;2023-03-01T05:05:47;18.23;;;12.83;;
64199;SDS011;50516;52.272;5.136;2023-03-01T05:08:14;18.80;;;12.07;;
64199;SDS011;50516;52.272;5.136;2023-03-01T05:10:48;19.83;;;12.57;;
64199;SDS011;50516;52.272;5.136;2023-03-01T05:13:15;17.20;;;12.17;;
64199;SDS011;50516;52.272;5.136;2023-03-01T05:15:46;17.93;;;11.73;;
64199;SDS011;50516;52.272;5.136;2023-03-01T05:18:13;17.37;;;12.37;;
64199;SDS011;50516;52.272;5.136;2023-03-01T05:20:39;19.23;;;11.53;;
64199;SDS011;50516;52.272;5.136;2023-03-01T05:23:05;19.20;;;12.40;;
64199;SDS011;50516;52.272;5.136;2023-03-01T05:25:31;22.33;;;12.67;;
64199;SDS011;50516;52.272;5.136;2023-03-01T05:27:58;21.57;;;12.77;;
64199;SDS011;50516;52.272;5.136;2023-03-01T05:30:29;17.03;;;12.00;;
64199;SDS011;50516;52.272;5.136;2023-03-01T05:32:55;16.73;;;11.57;;
64199;SDS011;50516;52.272;5.136;2023-03-01T05:35:21;16.90;;;12.00;;
64199;SDS011;50516;52.272;5.136;2023-03-01T05:37:47;21.23;;;12.30;;
64199;SDS011;50516;52.272;5.136;2023-03-01T05:40:16;19.53;;;12.33;;
64199;SDS011;50516;52.272;5.136;2023-03-01T05:42:48;18.37;;;12.80;;
64199;SDS011;50516;52.272;5.136;2023-03-01T05:45:15;17.10;;;12.57;;
64199;SDS011;50516;52.272;5.136;2023-03-01T05:47:42;17.97;;;12.77;;
64199;SDS011;50516;52.272;5.136;2023-03-01T05:50:16;17.70;;;11.50;;
64199;SDS011;50516;52.272;5.136;2023-03-01T05:52:47;18.10;;;10.80;;
64199;SDS011;50516;52.272;5.136;2023-03-01T05:55:18;17.50;;;11.73;;
64199;SDS011;50516;52.272;5.136;2023-03-01T05:57:45;15.07;;;10.77;;
64199;SDS011;50516;52.272;5.136;2023-03-01T06:00:12;17.03;;;12.33;;
64199;SDS011;50516;52.272;5.136;2023-03-01T06:02:38;19.67;;;12.43;;
64199;SDS011;50516;52.272;5.136;2023-03-01T06:05:05;17.23;;;11.93;;
64199;SDS011;50516;52.272;5.136;2023-03-01T06:07:32;20.23;;;12.43;;
64199;SDS011;50516;52.272;5.136;2023-03-01T06:09:57;16.70;;;11.60;;
64199;SDS011;50516;52.272;5.136;2023-03-01T06:12:23;19.27;;;11.93;;
64199;SDS011;50516;52.272;5.136;2023-03-01T06:14:48;21.20;;;12.83;;
64199;SDS011;50516;52.272;5.136;2023-03-01T06:17:13;16.77;;;12.27;;
64199;SDS011;50516;52.272;5.136;2023-03-01T06:19:39;16.17;;;11.90;;
64199;SDS011;50516;52.272;5.136;2023-03-01T06:22:04;20.27;;;12.27;;
64199;SDS011;50516;52.272;5.136;2023-03-01T06:24:30;20.70;;;12.90;;
64199;SDS011;50516;52.272;5.136;2023-03-01T06:26:55;16.97;;;12.13;;
64199;SDS011;50516;52.272;5.136;2023-03-01T06:29:20;19.30;;;12.37;;
64199;SDS011;50516;52.272;5.136;2023-03-01T06:31:48;19.20;;;12.63;;
64199;SDS011;50516;52.272;5.136;2023-03-01T06:34:13;21.00;;;13.27;;
64199;SDS011;50516;52.272;5.136;2023-03-01T06:36:39;19.67;;;12.30;;
64199;SDS011;50516;52.272;5.136;2023-03-01T06:39:05;19.47;;;12.10;;
64199;SDS011;50516;52.272;5.136;2023-03-01T06:41:31;16.83;;;11.73;;
64199;SDS011;50516;52.272;5.136;2023-03-01T06:43:56;19.37;;;12.20;;
64199;SDS011;50516;52.272;5.136;2023-03-01T06:46:21;18.73;;;12.53;;
64199;SDS011;50516;52.272;5.136;2023-03-01T06:48:47;18.73;;;12.93;;
64199;SDS011;50516;52.272;5.136;2023-03-01T06:51:12;18.13;;;11.93;;
64199;SDS011;50516;52.272;5.136;2023-03-01T06:53:38;17.20;;;11.73;;
64199;SDS011;50516;52.272;5.136;2023-03-01T06:56:03;18.03;;;12.13;;
64199;SDS011;50516;52.272;5.136;2023-03-01T06:58:29;17.57;;;12.33;;
64199;SDS011;50516;52.272;5.136;2023-03-01T07:00:54;20.60;;;11.87;;
64199;SDS011;50516;52.272;5.136;2023-03-01T07:03:19;18.47;;;13.07;;
64199;SDS011;50516;52.272;5.136;2023-03-01T07:05:45;16.70;;;12.40;;
64199;SDS011;50516;52.272;5.136;2023-03-01T07:08:13;20.40;;;12.53;;
64199;SDS011;50516;52.272;5.136;2023-03-01T07:10:38;16.43;;;12.07;;
64199;SDS011;50516;52.272;5.136;2023-03-01T07:13:03;17.50;;;12.07;;
64199;SDS011;50516;52.272;5.136;2023-03-01T07:15:31;17.73;;;12.33;;
64199;SDS011;50516;52.272;5.136;2023-03-01T07:17:57;18.30;;;12.50;;
64199;SDS011;50516;52.272;5.136;2023-03-01T07:20:23;18.37;;;12.20;;
64199;SDS011;50516;52.272;5.136;2023-03-01T07:22:50;17.30;;;11.87;;
64199;SDS011;50516;52.272;5.136;2023-03-01T07:25:16;17.90;;;12.43;;
64199;SDS011;50516;52.272;5.136;2023-03-01T07:27:42;17.43;;;11.17;;
64199;SDS011;50516;52.272;5.136;2023-03-01T07:30:07;17.27;;;11.87;;
64199;SDS011;50516;52.272;5.136;2023-03-01T07:32:34;19.03;;;11.37;;
64199;SDS011;50516;52.272;5.136;2023-03-01T07:34:59;19.80;;;13.47;;
64199;SDS011;50516;52.272;5.136;2023-03-01T07:37:24;19.23;;;12.23;;
64199;SDS011;50516;52.272;5.136;2023-03-01T07:39:50;16.93;;;12.17;;
64199;SDS011;50516;52.272;5.136;2023-03-01T07:42:15;16.60;;;11.83;;
64199;SDS011;50516;52.272;5.136;2023-03-01T07:44:41;23.37;;;16.03;;
64199;SDS011;50516;52.272;5.136;2023-03-01T07:47:06;26.60;;;17.87;;
64199;SDS011;50516;52.272;5.136;2023-03-01T07:49:31;30.70;;;21.47;;
64199;SDS011;50516;52.272;5.136;2023-03-01T07:51:57;32.70;;;20.07;;
64199;SDS011;50516;52.272;5.136;2023-03-01T07:54:22;34.10;;;23.80;;
64199;SDS011;50516;52.272;5.136;2023-03-01T07:56:48;33.37;;;23.00;;
64199;SDS011;50516;52.272;5.136;2023-03-01T07:59:13;39.30;;;24.33;;
64199;SDS011;50516;52.272;5.136;2023-03-01T08:01:38;34.37;;;23.77;;
64199;SDS011;50516;52.272;5.136;2023-03-01T08:04:04;35.20;;;22.97;;
64199;SDS011;50516;52.272;5.136;2023-03-01T08:06:33;34.92;;;24.52;;
64199;SDS011;50516;52.272;5.136;2023-03-01T08:08:59;37.78;;;23.58;;
64199;SDS011;50516;52.272;5.136;2023-03-01T08:11:24;38.58;;;26.08;;
64199;SDS011;50516;52.272;5.136;2023-03-01T08:13:50;32.97;;;21.52;;
64199;SDS011;50516;52.272;5.136;2023-03-01T08:16:15;34.22;;;23.05;;
64199;SDS011;50516;52.272;5.136;2023-03-01T08:18:41;35.90;;;22.65;;
64199;SDS011;50516;52.272;5.136;2023-03-01T08:21:09;39.17;;;24.08;;
64199;SDS011;50516;52.272;5.136;2023-03-01T08:23:39;34.80;;;22.90;;
64199;SDS011;50516;52.272;5.136;2023-03-01T08:26:07;32.13;;;23.05;;
64199;SDS011;50516;52.272;5.136;2023-03-01T08:28:37;34.47;;;23.42;;
64199;SDS011;50516;52.272;5.136;2023-03-01T08:31:03;32.70;;;22.23;;
64199;SDS011;50516;52.272;5.136;2023-03-01T08:33:37;37.13;;;25.00;;
64199;SDS011;50516;52.272;5.136;2023-03-01T08:36:04;32.65;;;22.55;;
64199;SDS011;50516;52.272;5.136;2023-03-01T08:38:31;33.17;;;22.30;;
64199;SDS011;50516;52.272;5.136;2023-03-01T08:40:59;27.98;;;20.80;;
64199;SDS011;50516;52.272;5.136;2023-03-01T08:43:25;32.80;;;21.60;;
64199;SDS011;50516;52.272;5.136;2023-03-01T08:45:51;29.75;;;20.48;;
64199;SDS011;50516;52.272;5.136;2023-03-01T08:48:16;29.40;;;19.95;;
64199;SDS011;50516;52.272;5.136;2023-03-01T08:50:41;27.60;;;18.98;;
64199;SDS011;50516;52.272;5.136;2023-03-01T08:53:07;26.27;;;17.38;;
64199;SDS011;50516;52.272;5.136;2023-03-01T08:55:32;24.95;;;18.13;;
64199;SDS011;50516;52.272;5.136;2023-03-01T08:57:57;24.17;;;16.70;;
64199;SDS011;50516;52.272;5.136;2023-03-01T09:00:23;23.67;;;14.38;;
64199;SDS011;50516;52.272;5.136;2023-03-01T09:02:49;20.08;;;15.18;;
64199;SDS011;50516;52.272;5.136;2023-03-01T09:05:15;22.75;;;15.98;;
64199;SDS011;50516;52.272;5.136;2023-03-01T09:07:40;20.33;;;14.82;;
64199;SDS011;50516;52.272;5.136;2023-03-01T09:10:06;20.17;;;14.10;;
64199;SDS011;50516;52.272;5.136;2023-03-01T09:12:32;21.40;;;14.90;;
64199;SDS011;50516;52.272;5.136;2023-03-01T09:14:57;17.15;;;14.05;;
64199;SDS011;50516;52.272;5.136;2023-03-01T09:17:22;20.52;;;13.32;;
64199;SDS011;50516;52.272;5.136;2023-03-01T09:19:48;15.65;;;12.07;;
64199;SDS011;50516;52.272;5.136;2023-03-01T09:22:13;15.38;;;10.32;;
64199;SDS011;50516;52.272;5.136;2023-03-01T09:24:39;14.75;;;9.98;;
64199;SDS011;50516;52.272;5.136;2023-03-01T09:27:05;14.70;;;9.52;;
64199;SDS011;50516;52.272;5.136;2023-03-01T09:29:33;14.15;;;10.75;;
64199;SDS011;50516;52.272;5.136;2023-03-01T09:32:00;16.17;;;11.30;;
64199;SDS011;50516;52.272;5.136;2023-03-01T09:34:25;20.10;;;13.27;;
64199;SDS011;50516;52.272;5.136;2023-03-01T09:36:51;20.52;;;14.07;;
64199;SDS011;50516;52.272;5.136;2023-03-01T09:39:17;19.55;;;13.85;;
64199;SDS011;50516;52.272;5.136;2023-03-01T09:42:03;22.17;;;12.88;;
64199;SDS011;50516;52.272;5.136;2023-03-01T09:44:43;23.70;;;15.10;;
64199;SDS011;50516;52.272;5.136;2023-03-01T09:47:17;24.48;;;16.23;;
64199;SDS011;50516;52.272;5.136;2023-03-01T09:49:47;26.40;;;16.45;;
64199;SDS011;50516;52.272;5.136;2023-03-01T09:54:49;24.70;;;16.50;;
64199;SDS011;50516;52.272;5.136;2023-03-01T10:03:05;23.25;;;13.98;;
64199;SDS011;50516;52.272;5.136;2023-03-01T10:10:48;20.73;;;13.07;;
64199;SDS011;50516;52.272;5.136;2023-03-01T10:13:16;18.73;;;11.93;;
64199;SDS011;50516;52.272;5.136;2023-03-01T10:15:56;18.92;;;12.38;;
64199;SDS011;50516;52.272;5.136;2023-03-01T10:18:27;19.70;;;11.85;;
64199;SDS011;50516;52.272;5.136;2023-03-01T10:21:00;17.27;;;12.25;;
64199;SDS011;50516;52.272;5.136;2023-03-01T10:23:26;19.77;;;12.90;;
64199;SDS011;50516;52.272;5.136;2023-03-01T10:28:47;17.35;;;12.38;;
64199;SDS011;50516;52.272;5.136;2023-03-01T10:31:18;15.32;;;10.32;;
64199;SDS011;50516;52.272;5.136;2023-03-01T10:33:52;16.60;;;10.38;;
64199;SDS011;50516;52.272;5.136;2023-03-01T10:36:20;15.73;;;10.75;;
64199;SDS011;50516;52.272;5.136;2023-03-01T10:38:47;15.30;;;10.60;;
64199;SDS011;50516;52.272;5.136;2023-03-01T10:41:20;15.52;;;9.73;;
64199;SDS011;50516;52.272;5.136;2023-03-01T10:43:51;18.42;;;11.10;;
64199;SDS011;50516;52.272;5.136;2023-03-01T10:46:36;13.20;;;8.88;;
64199;SDS011;50516;52.272;5.136;2023-03-01T10:49:16;13.40;;;8.40;;
64199;SDS011;50516;52.272;5.136;2023-03-01T10:51:44;16.40;;;9.55;;
64199;SDS011;50516;52.272;5.136;2023-03-01T10:56:57;11.77;;;7.80;;
64199;SDS011;50516;52.272;5.136;2023-03-01T10:59:27;10.50;;;6.18;;
64199;SDS011;50516;52.272;5.136;2023-03-01T11:02:02;8.43;;;5.90;;
64199;SDS011;50516;52.272;5.136;2023-03-01T11:04:39;9.88;;;6.57;;
64199;SDS011;50516;52.272;5.136;2023-03-01T11:07:20;13.07;;;7.22;;
64199;SDS011;50516;52.272;5.136;2023-03-01T11:09:46;12.90;;;8.43;;
64199;SDS011;50516;52.272;5.136;2023-03-01T11:12:13;12.65;;;7.03;;
64199;SDS011;50516;52.272;5.136;2023-03-01T11:14:46;12.30;;;7.47;;
64199;SDS011;50516;52.272;5.136;2023-03-01T11:17:19;10.80;;;6.93;;
64199;SDS011;50516;52.272;5.136;2023-03-01T11:20:13;13.30;;;6.90;;
64199;SDS011;50516;52.272;5.136;2023-03-01T11:22:50;10.85;;;6.85;;
64199;SDS011;50516;52.272;5.136;2023-03-01T11:25:19;13.57;;;7.72;;
64199;SDS011;50516;52.272;5.136;2023-03-01T11:27:50;11.85;;;7.47;;
64199;SDS011;50516;52.272;5.136;2023-03-01T11:30:21;13.30;;;6.72;;
64199;SDS011;50516;52.272;5.136;2023-03-01T11:32:58;10.40;;;6.38;;
64199;SDS011;50516;52.272;5.136;2023-03-01T11:35:27;11.63;;;6.60;;
64199;SDS011;50516;52.272;5.136;2023-03-01T11:43:24;9.98;;;6.25;;
64199;SDS011;50516;52.272;5.136;2023-03-01T11:56:43;15.07;;;6.85;;
64199;SDS011;50516;52.272;5.136;2023-03-01T12:06:00;11.35;;;7.18;;
64199;SDS011;50516;52.272;5.136;2023-03-01T12:08:33;12.02;;;6.32;;
64199;SDS011;50516;52.272;5.136;2023-03-01T12:11:04;10.02;;;6.25;;
64199;SDS011;50516;52.272;5.136;2023-03-01T12:13:47;9.35;;;6.45;;
64199;SDS011;50516;52.272;5.136;2023-03-01T12:19:32;10.07;;;6.45;;
64199;SDS011;50516;52.272;5.136;2023-03-01T12:22:21;11.13;;;6.10;;
64199;SDS011;50516;52.272;5.136;2023-03-01T12:25:16;12.48;;;6.18;;
64199;SDS011;50516;52.272;5.136;2023-03-01T12:49:57;11.27;;;6.68;;
64199;SDS011;50516;52.272;5.136;2023-03-01T12:55:36;11.32;;;6.30;;
64199;SDS011;50516;52.272;5.136;2023-03-01T13:03:26;8.95;;;6.28;;
64199;SDS011;50516;52.272;5.136;2023-03-01T13:06:12;10.30;;;6.25;;
64199;SDS011;50516;52.272;5.136;2023-03-01T13:11:21;10.02;;;6.25;;
64199;SDS011;50516;52.272;5.136;2023-03-01T13:13:48;9.02;;;5.80;;
64199;SDS011;50516;52.272;5.136;2023-03-01T13:16:20;10.60;;;6.07;;
64199;SDS011;50516;52.272;5.136;2023-03-01T13:19:16;8.55;;;5.88;;
64199;SDS011;50516;52.272;5.136;2023-03-01T13:21:45;9.50;;;5.55;;
64199;SDS011;50516;52.272;5.136;2023-03-01T13:34:49;11.93;;;5.85;;
64199;SDS011;50516;52.272;5.136;2023-03-01T13:37:20;10.10;;;5.47;;
64199;SDS011;50516;52.272;5.136;2023-03-01T13:39:48;8.27;;;5.72;;
64199;SDS011;50516;52.272;5.136;2023-03-01T13:42:33;9.32;;;5.47;;
64199;SDS011;50516;52.272;5.136;2023-03-01T13:45:05;9.93;;;5.45;;
64199;SDS011;50516;52.272;5.136;2023-03-01T13:47:40;8.32;;;5.15;;
64199;SDS011;50516;52.272;5.136;2023-03-01T13:50:15;9.07;;;5.55;;
64199;SDS011;50516;52.272;5.136;2023-03-01T13:55:17;8.63;;;5.85;;
64199;SDS011;50516;52.272;5.136;2023-03-01T13:57:47;12.43;;;6.32;;
64199;SDS011;50516;52.272;5.136;2023-03-01T14:00:28;12.77;;;5.85;;
64199;SDS011;50516;52.272;5.136;2023-03-01T14:03:27;9.55;;;5.85;;
64199;SDS011;50516;52.272;5.136;2023-03-01T14:08:33;10.23;;;5.88;;
64199;SDS011;50516;52.272;5.136;2023-03-01T14:17:08;9.88;;;6.15;;
64199;SDS011;50516;52.272;5.136;2023-03-01T14:19:41;10.50;;;5.85;;
64199;SDS011;50516;52.272;5.136;2023-03-01T14:24:57;9.55;;;5.85;;
64199;SDS011;50516;52.272;5.136;2023-03-01T14:27:35;9.00;;;5.80;;
64199;SDS011;50516;52.272;5.136;2023-03-01T14:30:10;11.52;;;6.07;;
64199;SDS011;50516;52.272;5.136;2023-03-01T14:32:39;11.90;;;6.18;;
64199;SDS011;50516;52.272;5.136;2023-03-01T14:35:19;9.70;;;5.60;;
64199;SDS011;50516;52.272;5.136;2023-03-01T14:37:45;7.70;;;5.53;;
64199;SDS011;50516;52.272;5.136;2023-03-01T14:40:19;12.95;;;6.50;;
64199;SDS011;50516;52.272;5.136;2023-03-01T14:42:48;11.43;;;6.05;;
64199;SDS011;50516;52.272;5.136;2023-03-01T14:45:14;8.38;;;5.03;;
64199;SDS011;50516;52.272;5.136;2023-03-01T14:47:39;9.45;;;5.82;;
64199;SDS011;50516;52.272;5.136;2023-03-01T14:50:18;8.80;;;5.45;;
64199;SDS011;50516;52.272;5.136;2023-03-01T14:52:45;7.75;;;5.90;;
64199;SDS011;50516;52.272;5.136;2023-03-01T14:55:15;8.48;;;5.30;;
64199;SDS011;50516;52.272;5.136;2023-03-01T14:57:52;10.32;;;5.05;;
64199;SDS011;50516;52.272;5.136;2023-03-01T15:00:22;9.73;;;5.67;;
64199;SDS011;50516;52.272;5.136;2023-03-01T15:02:50;9.10;;;5.72;;
64199;SDS011;50516;52.272;5.136;2023-03-01T15:05:18;11.60;;;6.40;;
64199;SDS011;50516;52.272;5.136;2023-03-01T15:07:52;9.60;;;5.80;;
64199;SDS011;50516;52.272;5.136;2023-03-01T15:10:23;9.40;;;6.40;;
64199;SDS011;50516;52.272;5.136;2023-03-01T15:12:53;8.65;;;6.13;;
64199;SDS011;50516;52.272;5.136;2023-03-01T15:15:19;10.85;;;6.20;;
64199;SDS011;50516;52.272;5.136;2023-03-01T15:17:56;11.82;;;5.95;;
64199;SDS011;50516;52.272;5.136;2023-03-01T15:20:25;11.18;;;7.15;;
64199;SDS011;50516;52.272;5.136;2023-03-01T15:22:55;9.60;;;5.93;;
64199;SDS011;50516;52.272;5.136;2023-03-01T15:25:26;9.75;;;6.70;;
64199;SDS011;50516;52.272;5.136;2023-03-01T15:27:53;11.00;;;5.97;;
64199;SDS011;50516;52.272;5.136;2023-03-01T15:30:27;13.65;;;6.63;;
64199;SDS011;50516;52.272;5.136;2023-03-01T15:36:29;17.83;;;6.50;;
64199;SDS011;50516;52.272;5.136;2023-03-01T15:38:55;9.57;;;5.80;;
64199;SDS011;50516;52.272;5.136;2023-03-01T15:41:26;10.43;;;6.40;;
64199;SDS011;50516;52.272;5.136;2023-03-01T15:43:57;11.07;;;6.38;;
64199;SDS011;50516;52.272;5.136;2023-03-01T15:46:34;11.02;;;6.10;;
64199;SDS011;50516;52.272;5.136;2023-03-01T15:49:05;8.82;;;5.72;;
64199;SDS011;50516;52.272;5.136;2023-03-01T15:51:46;11.73;;;6.45;;
64199;SDS011;50516;52.272;5.136;2023-03-01T15:54:19;8.85;;;5.97;;
64199;SDS011;50516;52.272;5.136;2023-03-01T15:56:47;10.18;;;6.55;;
64199;SDS011;50516;52.272;5.136;2023-03-01T15:59:12;10.68;;;6.15;;
64199;SDS011;50516;52.272;5.136;2023-03-01T16:01:39;11.18;;;6.10;;
64199;SDS011;50516;52.272;5.136;2023-03-01T16:04:05;10.57;;;6.10;;
64199;SDS011;50516;52.272;5.136;2023-03-01T16:06:30;10.07;;;5.95;;
64199;SDS011;50516;52.272;5.136;2023-03-01T16:08:55;10.38;;;6.32;;
64199;SDS011;50516;52.272;5.136;2023-03-01T16:11:21;11.20;;;6.30;;
64199;SDS011;50516;52.272;5.136;2023-03-01T16:13:47;10.25;;;5.78;;
64199;SDS011;50516;52.272;5.136;2023-03-01T16:16:13;10.45;;;6.30;;
64199;SDS011;50516;52.272;5.136;2023-03-01T16:18:45;10.35;;;6.50;;
64199;SDS011;50516;52.272;5.136;2023-03-01T16:21:16;15.02;;;6.40;;
64199;SDS011;50516;52.272;5.136;2023-03-01T16:23:45;9.45;;;6.45;;
64199;SDS011;50516;52.272;5.136;2023-03-01T16:26:11;9.20;;;5.53;;
64199;SDS011;50516;52.272;5.136;2023-03-01T16:28:38;9.93;;;6.88;;
64199;SDS011;50516;52.272;5.136;2023-03-01T16:31:04;11.38;;;6.53;;